Time,TemperatureF,DewpointF,PressureIn,WindDirection,WindDirectionDegrees,WindSpeedMPH,WindSpeedGustMPH,Humidity,HourlyPrecipIn,Conditions,Clouds,dailyrainin,SoftwareType,DateUTC
2013-03-16 00:00:00,10.1,-8.9,30.14,ENE,58,1.0,12.0,41,0.00,,---,0.00,VWS V14.01,2013-03-16 08:00:00,
2013-03-16 00:05:00,10.1,-9.4,30.14,ESE,113,4.0,11.0,40,0.00,,---,0.00,VWS V14.01,2013-03-16 08:05:00,
2013-03-16 00:10:00,10.0,-8.5,30.15,East,94,4.0,11.0,42,0.00,,---,0.00,VWS V14.01,2013-03-16 08:10:00,
2013-03-16 00:14:00,10.1,-9.4,30.15,ENE,76,5.0,12.0,40,0.00,,---,0.00,VWS V14.01,2013-03-16 08:14:00,
2013-03-16 00:19:00,9.9,-9.1,30.15,ENE,66,4.0,12.0,41,0.00,,---,0.00,VWS V14.01,2013-03-16 08:19:00,
2013-03-16 00:24:00,9.9,-8.6,30.15,ESE,103,4.0,12.0,42,0.00,,---,0.00,VWS V14.01,2013-03-16 08:24:00,
2013-03-16 00:29:00,10.1,-8.9,30.15,ESE,105,5.0,12.0,41,0.00,,---,0.00,VWS V14.01,2013-03-16 08:29:00,
2013-03-16 00:30:00,10.1,-8.9,30.15,East,96,4.0,12.0,41,0.00,,---,0.00,VWS V14.01,2013-03-16 08:30:00,
2013-03-16 00:34:00,10.2,-8.8,30.15,ESE,112,1.0,11.0,41,0.00,,---,0.00,VWS V14.01,2013-03-16 08:34:00,
2013-03-16 00:39:00,10.3,-8.7,30.15,East,90,7.0,11.0,41,0.00,,---,0.00,VWS V14.01,2013-03-16 08:39:00,
2013-03-16 00:44:00,10.5,-8.5,30.15,ENE,74,10.0,11.0,41,0.00,,---,0.00,VWS V14.01,2013-03-16 08:44:00,
2013-03-16 00:49:00,10.5,-8.5,30.15,East,101,2.0,11.0,41,0.00,,---,0.00,VWS V14.01,2013-03-16 08:49:00,
2013-03-16 00:54:00,10.5,-8.5,30.15,ESE,107,5.0,11.0,41,0.00,,---,0.00,VWS V14.01,2013-03-16 08:54:00,
2013-03-16 00:59:00,10.6,-8.4,30.15,SE,132,2.0,11.0,41,0.00,,---,0.00,VWS V14.01,2013-03-16 08:59:00,
2013-03-16 01:00:00,10.6,-8.4,30.15,ESE,121,5.0,11.0,41,0.00,,---,0.00,VWS V14.01,2013-03-16 09:00:00,
2013-03-16 01:04:00,10.5,-8.5,30.15,ESE,113,1.0,7.0,41,0.00,,---,0.00,VWS V14.01,2013-03-16 09:04:00,
2013-03-16 01:09:00,10.3,-8.2,30.15,ESE,105,2.0,7.0,42,0.00,,---,0.00,VWS V14.01,2013-03-16 09:09:00,
2013-03-16 01:14:00,10.4,-8.6,30.15,East,84,2.0,8.0,41,0.00,,---,0.00,VWS V14.01,2013-03-16 09:14:00,
2013-03-16 01:19:00,10.4,-8.1,30.15,ESE,105,5.0,8.0,42,0.00,,---,0.00,VWS V14.01,2013-03-16 09:19:00,
2013-03-16 01:24:00,10.6,-8.4,30.15,SE,128,4.0,10.0,41,0.00,,---,0.00,VWS V14.01,2013-03-16 09:24:00,
2013-03-16 01:29:00,10.4,-8.1,30.16,ESE,111,1.0,10.0,42,0.00,,---,0.00,VWS V14.01,2013-03-16 09:29:00,
2013-03-16 01:30:00,10.3,-8.7,30.16,SE,124,2.0,10.0,41,0.00,,---,0.00,VWS V14.01,2013-03-16 09:30:00,
2013-03-16 01:34:00,10.3,-8.2,30.16,East,98,1.0,5.0,42,0.00,,---,0.00,VWS V14.01,2013-03-16 09:34:00,
2013-03-16 01:39:00,10.3,-8.2,30.16,East,85,0.0,8.0,42,0.00,,---,0.00,VWS V14.01,2013-03-16 09:39:00,
2013-03-16 01:44:00,10.3,-8.2,30.16,East,84,2.0,8.0,42,0.00,,---,0.00,VWS V14.01,2013-03-16 09:44:00,
2013-03-16 01:49:00,10.3,-8.2,30.16,ESE,107,0.0,8.0,42,0.00,,---,0.00,VWS V14.01,2013-03-16 09:49:00,
2013-03-16 01:54:00,10.3,-7.8,30.16,ESE,109,1.0,8.0,43,0.00,,---,0.00,VWS V14.01,2013-03-16 09:54:00,
2013-03-16 01:59:00,10.1,-7.9,30.16,ESE,109,0.0,8.0,43,0.00,,---,0.00,VWS V14.01,2013-03-16 09:59:00,
2013-03-16 02:00:00,10.2,-7.8,30.16,ENE,58,2.0,8.0,43,0.00,,---,0.00,VWS V14.01,2013-03-16 10:00:00,
2013-03-16 02:04:00,10.2,-7.8,30.16,ENE,63,0.0,5.0,43,0.00,,---,0.00,VWS V14.01,2013-03-16 10:04:00,
2013-03-16 02:09:00,10.3,-7.8,30.16,East,93,1.0,5.0,43,0.00,,---,0.00,VWS V14.01,2013-03-16 10:09:00,
2013-03-16 02:14:00,10.3,-8.2,30.16,East,96,4.0,6.0,42,0.00,,---,0.00,VWS V14.01,2013-03-16 10:14:00,
2013-03-16 02:19:00,10.4,-7.7,30.16,East,93,1.0,6.0,43,0.00,,---,0.00,VWS V14.01,2013-03-16 10:19:00,
2013-03-16 02:24:00,10.4,-8.1,30.16,East,93,1.0,9.0,42,0.00,,---,0.00,VWS V14.01,2013-03-16 10:24:00,
2013-03-16 02:29:00,10.4,-6.7,30.16,East,92,5.0,9.0,45,0.00,,---,0.00,VWS V14.01,2013-03-16 10:29:00,
2013-03-16 02:30:00,10.4,-6.7,30.16,ENE,77,2.0,9.0,45,0.00,,---,0.00,VWS V14.01,2013-03-16 10:30:00,
2013-03-16 02:34:00,10.3,-7.8,30.16,ESE,113,5.0,6.0,43,0.00,,---,0.00,VWS V14.01,2013-03-16 10:34:00,
2013-03-16 02:39:00,10.2,-8.3,30.17,ESE,120,2.0,6.0,42,0.00,,---,0.00,VWS V14.01,2013-03-16 10:39:00,
2013-03-16 02:44:00,10.2,-8.3,30.17,ESE,119,1.0,6.0,42,0.00,,---,0.00,VWS V14.01,2013-03-16 10:44:00,
2013-03-16 02:49:00,10.2,-7.8,30.16,East,100,2.0,6.0,43,0.00,,---,0.00,VWS V14.01,2013-03-16 10:49:00,
2013-03-16 02:55:00,10.1,-7.9,30.17,East,81,1.0,1.0,43,0.00,,---,0.00,VWS V14.01,2013-03-16 10:55:00,
2013-03-16 03:00:00,10.1,-8.4,30.17,ESE,104,0.0,8.0,42,0.00,,---,0.00,VWS V14.01,2013-03-16 11:00:00,
2013-03-16 03:05:00,10.1,-8.4,30.17,ESE,105,4.0,8.0,42,0.00,,---,0.00,VWS V14.01,2013-03-16 11:05:00,
2013-03-16 03:10:00,10.1,-7.5,30.17,East,101,4.0,8.0,44,0.00,,---,0.00,VWS V14.01,2013-03-16 11:10:00,
2013-03-16 03:15:00,10.1,-7.9,30.17,SE,128,1.0,8.0,43,0.00,,---,0.00,VWS V14.01,2013-03-16 11:15:00,
2013-03-16 03:20:00,10.0,-8.0,30.17,ESE,108,2.0,8.0,43,0.00,,---,0.00,VWS V14.01,2013-03-16 11:20:00,
2013-03-16 03:25:00,10.0,-8.0,30.17,East,88,1.0,8.0,43,0.00,,---,0.00,VWS V14.01,2013-03-16 11:25:00,
2013-03-16 03:30:00,9.9,-8.1,30.17,ESE,107,1.0,8.0,43,0.00,,---,0.00,VWS V14.01,2013-03-16 11:30:00,
2013-03-16 03:35:00,9.7,-8.3,30.17,ESE,102,5.0,6.0,43,0.00,,---,0.00,VWS V14.01,2013-03-16 11:35:00,
2013-03-16 03:40:00,9.7,-7.8,30.17,East,90,2.0,6.0,44,0.00,,---,0.00,VWS V14.01,2013-03-16 11:40:00,
2013-03-16 03:45:00,9.8,-7.7,30.17,ESE,105,4.0,6.0,44,0.00,,---,0.00,VWS V14.01,2013-03-16 11:45:00,
2013-03-16 03:50:00,9.6,-7.5,30.17,ESE,123,4.0,6.0,45,0.00,,---,0.00,VWS V14.01,2013-03-16 11:50:00,
2013-03-16 03:55:00,9.6,-7.5,30.17,East,87,3.0,7.0,45,0.00,,---,0.00,VWS V14.01,2013-03-16 11:55:00,
2013-03-16 04:00:00,9.6,-7.5,30.17,ESE,107,1.0,7.0,45,0.00,,---,0.00,VWS V14.01,2013-03-16 12:00:00,
2013-03-16 04:05:00,9.9,-7.6,30.17,ENE,76,1.0,5.0,44,0.00,,---,0.00,VWS V14.01,2013-03-16 12:05:00,
2013-03-16 04:10:00,9.7,-7.4,30.17,ENE,61,3.0,5.0,45,0.00,,---,0.00,VWS V14.01,2013-03-16 12:10:00,
2013-03-16 04:15:00,9.6,-7.5,30.17,ENE,78,1.0,5.0,45,0.00,,---,0.00,VWS V14.01,2013-03-16 12:15:00,
2013-03-16 04:20:00,9.7,-7.8,30.17,East,96,4.0,6.0,44,0.00,,---,0.00,VWS V14.01,2013-03-16 12:20:00,
2013-03-16 04:25:00,9.8,-7.3,30.17,East,84,1.0,6.0,45,0.00,,---,0.00,VWS V14.01,2013-03-16 12:25:00,
2013-03-16 04:30:00,9.9,-7.6,30.17,East,96,1.0,6.0,44,0.00,,---,0.00,VWS V14.01,2013-03-16 12:30:00,
2013-03-16 04:35:00,10.0,-7.1,30.17,ESE,107,2.0,4.0,45,0.00,,---,0.00,VWS V14.01,2013-03-16 12:35:00,
2013-03-16 04:40:00,9.9,-7.6,30.17,ESE,117,2.0,4.0,44,0.00,,---,0.00,VWS V14.01,2013-03-16 12:40:00,
2013-03-16 04:45:00,9.8,-7.7,30.18,East,96,1.0,4.0,44,0.00,,---,0.00,VWS V14.01,2013-03-16 12:45:00,
2013-03-16 04:50:00,9.7,-7.8,30.18,East,98,0.0,4.0,44,0.00,,---,0.00,VWS V14.01,2013-03-16 12:50:00,
2013-03-16 04:55:00,9.6,-7.5,30.18,ENE,57,2.0,6.0,45,0.00,,---,0.00,VWS V14.01,2013-03-16 12:55:00,
2013-03-16 05:00:00,9.8,-6.4,30.18,East,95,2.0,6.0,47,0.00,,---,0.00,VWS V14.01,2013-03-16 13:00:00,
2013-03-16 05:05:00,9.8,-7.3,30.18,East,90,4.0,5.0,45,0.00,,---,0.00,VWS V14.01,2013-03-16 13:05:00,
2013-03-16 05:10:00,9.9,-7.6,30.18,ENE,62,0.0,6.0,44,0.00,,---,0.00,VWS V14.01,2013-03-16 13:10:00,
2013-03-16 05:15:00,9.9,-7.6,30.18,East,86,3.0,6.0,44,0.00,,---,0.00,VWS V14.01,2013-03-16 13:15:00,
2013-03-16 05:20:00,9.8,-7.3,30.18,East,94,2.0,6.0,45,0.00,,---,0.00,VWS V14.01,2013-03-16 13:20:00,
2013-03-16 05:25:00,9.8,-7.7,30.18,East,95,1.0,6.0,44,0.00,,---,0.00,VWS V14.01,2013-03-16 13:25:00,
2013-03-16 05:30:00,10.0,-6.6,30.17,ESE,116,1.0,6.0,46,0.00,,---,0.00,VWS V14.01,2013-03-16 13:30:00,
2013-03-16 05:35:00,10.0,-7.1,30.18,ESE,107,1.0,4.0,45,0.00,,---,0.00,VWS V14.01,2013-03-16 13:35:00,
2013-03-16 05:40:00,10.0,-6.2,30.18,East,81,2.0,4.0,47,0.00,,---,0.00,VWS V14.01,2013-03-16 13:40:00,
2013-03-16 05:45:00,9.9,-7.2,30.18,ENE,74,2.0,4.0,45,0.00,,---,0.00,VWS V14.01,2013-03-16 13:45:00,
2013-03-16 05:50:00,9.8,-7.3,30.18,ENE,67,0.0,4.0,45,0.00,,---,0.00,VWS V14.01,2013-03-16 13:50:00,
2013-03-16 05:55:00,9.6,-7.5,30.18,SE,137,0.0,4.0,45,0.00,,---,0.00,VWS V14.01,2013-03-16 13:55:00,
2013-03-16 06:00:00,9.6,-7.5,30.18,ENE,76,1.0,4.0,45,0.00,,---,0.00,VWS V14.01,2013-03-16 14:00:00,
2013-03-16 06:05:00,9.4,-7.2,30.18,ENE,60,2.0,4.0,46,0.00,,---,0.00,VWS V14.01,2013-03-16 14:05:00,
2013-03-16 06:10:00,9.5,-7.1,30.18,ENE,58,2.0,4.0,46,0.00,,---,0.00,VWS V14.01,2013-03-16 14:10:00,
2013-03-16 06:15:00,9.5,-7.6,30.18,ENE,63,0.0,6.0,45,0.00,,---,0.00,VWS V14.01,2013-03-16 14:15:00,
2013-03-16 06:20:00,9.4,-7.2,30.18,ENE,78,1.0,6.0,46,0.00,,---,0.00,VWS V14.01,2013-03-16 14:20:00,
2013-03-16 06:25:00,9.8,-6.8,30.19,NE,53,2.0,7.0,46,0.00,,---,0.00,VWS V14.01,2013-03-16 14:25:00,
2013-03-16 06:30:00,9.8,-6.8,30.19,ENE,67,1.0,8.0,46,0.00,,---,0.00,VWS V14.01,2013-03-16 14:30:00,
2013-03-16 06:35:00,9.9,-6.7,30.19,ENE,78,2.0,6.0,46,0.00,,---,0.00,VWS V14.01,2013-03-16 14:35:00,
2013-03-16 06:40:00,9.8,-6.8,30.19,ESE,103,4.0,6.0,46,0.00,,---,0.00,VWS V14.01,2013-03-16 14:40:00,
2013-03-16 06:45:00,9.8,-6.8,30.19,ESE,108,2.0,6.0,46,0.00,,---,0.00,VWS V14.01,2013-03-16 14:45:00,
2013-03-16 06:50:00,9.9,-6.7,30.19,NE,34,3.0,6.0,46,0.00,,---,0.00,VWS V14.01,2013-03-16 14:50:00,
2013-03-16 06:55:00,9.9,-6.7,30.19,ESE,103,1.0,6.0,46,0.00,,---,0.00,VWS V14.01,2013-03-16 14:55:00,
2013-03-16 07:00:00,9.7,-6.9,30.20,NE,56,1.0,6.0,46,0.00,,---,0.00,VWS V14.01,2013-03-16 15:00:00,
2013-03-16 07:05:00,9.6,-7.0,30.19,NE,42,0.0,3.0,46,0.00,,---,0.00,VWS V14.01,2013-03-16 15:05:00,
2013-03-16 07:10:00,9.7,-6.9,30.20,NE,53,1.0,3.0,46,0.00,,---,0.00,VWS V14.01,2013-03-16 15:10:00,
2013-03-16 07:15:00,9.7,-6.0,30.20,NE,53,1.0,3.0,48,0.00,,---,0.00,VWS V14.01,2013-03-16 15:15:00,
2013-03-16 07:20:00,9.7,-6.5,30.20,NE,41,1.0,3.0,47,0.00,,---,0.00,VWS V14.01,2013-03-16 15:20:00,
2013-03-16 07:25:00,9.6,-7.0,30.20,NE,38,2.0,4.0,46,0.00,,---,0.00,VWS V14.01,2013-03-16 15:25:00,
2013-03-16 07:30:00,9.5,-6.7,30.20,NE,42,0.0,4.0,47,0.00,,---,0.00,VWS V14.01,2013-03-16 15:30:00,
2013-03-16 07:35:00,9.5,-6.7,30.20,NNE,17,0.0,7.0,47,0.00,,---,0.00,VWS V14.01,2013-03-16 15:35:00,
2013-03-16 07:40:00,9.5,-6.7,30.20,ENE,61,2.0,7.0,47,0.00,,---,0.00,VWS V14.01,2013-03-16 15:40:00,
2013-03-16 07:45:00,9.5,-6.2,30.20,NE,43,4.0,7.0,48,0.00,,---,0.00,VWS V14.01,2013-03-16 15:45:00,
2013-03-16 07:50:00,9.4,-6.3,30.20,ENE,65,2.0,7.0,48,0.00,,---,0.00,VWS V14.01,2013-03-16 15:50:00,
2013-03-16 07:55:00,9.4,-6.3,30.20,ENE,76,0.0,7.0,48,0.00,,---,0.00,VWS V14.01,2013-03-16 15:55:00,
2013-03-16 08:00:00,9.5,-6.2,30.20,ENE,57,1.0,7.0,48,0.00,,---,0.00,VWS V14.01,2013-03-16 16:00:00,
2013-03-16 08:05:00,9.5,-6.2,30.20,NE,53,2.0,5.0,48,0.00,,---,0.00,VWS V14.01,2013-03-16 16:05:00,
2013-03-16 08:10:00,9.6,-6.1,30.20,NE,48,1.0,5.0,48,0.00,,---,0.00,VWS V14.01,2013-03-16 16:10:00,
2013-03-16 08:15:00,9.6,-5.7,30.20,SE,128,2.0,6.0,49,0.00,,---,0.00,VWS V14.01,2013-03-16 16:15:00,
2013-03-16 08:20:00,9.9,-5.4,30.20,NE,54,6.0,7.0,49,0.00,,---,0.00,VWS V14.01,2013-03-16 16:20:00,
2013-03-16 08:25:00,10.3,-5.5,30.20,East,101,6.0,7.0,48,0.00,,---,0.00,VWS V14.01,2013-03-16 16:25:00,
2013-03-16 08:30:00,10.4,-5.4,30.20,ENE,63,2.0,7.0,48,0.00,,---,0.00,VWS V14.01,2013-03-16 16:30:00,
2013-03-16 08:35:00,10.5,-4.9,30.20,ENE,76,2.0,3.0,49,0.00,,---,0.00,VWS V14.01,2013-03-16 16:35:00,
2013-03-16 08:40:00,10.7,-4.7,30.21,NE,46,0.0,3.0,49,0.00,,---,0.00,VWS V14.01,2013-03-16 16:40:00,
2013-03-16 08:45:00,10.9,-4.9,30.21,ENE,61,0.0,5.0,48,0.00,,---,0.00,VWS V14.01,2013-03-16 16:45:00,
2013-03-16 08:50:00,11.0,-5.3,30.21,East,88,1.0,6.0,47,0.00,,---,0.00,VWS V14.01,2013-03-16 16:50:00,
2013-03-16 08:55:00,11.0,-4.8,30.21,SE,130,1.0,6.0,48,0.00,,---,0.00,VWS V14.01,2013-03-16 16:55:00,
2013-03-16 09:00:00,11.2,-5.1,30.21,ENE,77,1.0,6.0,47,0.00,,---,0.00,VWS V14.01,2013-03-16 17:00:00,
2013-03-16 09:05:00,11.3,-5.0,30.21,ENE,73,1.0,4.0,47,0.00,,---,0.00,VWS V14.01,2013-03-16 17:05:00,
2013-03-16 09:10:00,11.3,-5.0,30.21,ENE,57,0.0,6.0,47,0.00,,---,0.00,VWS V14.01,2013-03-16 17:10:00,
2013-03-16 09:15:00,11.5,-4.8,30.22,East,92,1.0,6.0,47,0.00,,---,0.00,VWS V14.01,2013-03-16 17:15:00,
2013-03-16 09:20:00,11.8,-4.5,30.22,ESE,107,0.0,6.0,47,0.00,,---,0.00,VWS V14.01,2013-03-16 17:20:00,
2013-03-16 09:25:00,12.1,-4.3,30.21,ENE,71,2.0,6.0,47,0.00,,---,0.00,VWS V14.01,2013-03-16 17:25:00,
2013-03-16 09:30:00,12.4,-4.4,30.21,East,98,1.0,6.0,46,0.00,,---,0.00,VWS V14.01,2013-03-16 17:30:00,
2013-03-16 09:35:00,12.7,-4.6,30.21,ESE,112,1.0,5.0,45,0.00,,---,0.00,VWS V14.01,2013-03-16 17:35:00,
2013-03-16 09:40:00,12.9,-3.5,30.21,NE,44,1.0,5.0,47,0.00,,---,0.00,VWS V14.01,2013-03-16 17:40:00,
2013-03-16 09:45:00,13.0,-4.3,30.21,ENE,70,1.0,5.0,45,0.00,,---,0.00,VWS V14.01,2013-03-16 17:45:00,
2013-03-16 09:50:00,13.0,-4.3,30.21,NNE,20,1.0,7.0,45,0.00,,---,0.00,VWS V14.01,2013-03-16 17:50:00,
2013-03-16 09:55:00,13.1,-4.2,30.21,ENE,76,1.0,7.0,45,0.00,,---,0.00,VWS V14.01,2013-03-16 17:55:00,
2013-03-16 10:00:00,13.5,-3.4,30.21,ENE,67,2.0,7.0,46,0.00,,---,0.00,VWS V14.01,2013-03-16 18:00:00,
2013-03-16 10:05:00,13.9,-3.5,30.21,East,93,4.0,7.0,45,0.00,,---,0.00,VWS V14.01,2013-03-16 18:05:00,
2013-03-16 10:10:00,14.0,-4.4,30.21,East,94,0.0,7.0,43,0.00,,---,0.00,VWS V14.01,2013-03-16 18:10:00,
2013-03-16 10:15:00,14.2,-4.2,30.21,East,82,1.0,7.0,43,0.00,,---,0.00,VWS V14.01,2013-03-16 18:15:00,
2013-03-16 10:20:00,14.4,-4.0,30.22,ESE,113,1.0,7.0,43,0.00,,---,0.00,VWS V14.01,2013-03-16 18:20:00,
2013-03-16 10:25:00,14.5,-3.9,30.22,ENE,76,2.0,10.0,43,0.00,,---,0.00,VWS V14.01,2013-03-16 18:25:00,
2013-03-16 10:30:00,14.7,-3.7,30.22,East,94,2.0,10.0,43,0.00,,---,0.00,VWS V14.01,2013-03-16 18:30:00,
2013-03-16 10:35:00,14.6,-4.3,30.22,ESE,110,2.0,6.0,42,0.00,,---,0.00,VWS V14.01,2013-03-16 18:35:00,
2013-03-16 10:40:00,14.4,-4.0,30.22,ESE,105,1.0,6.0,43,0.00,,---,0.00,VWS V14.01,2013-03-16 18:40:00,
2013-03-16 10:45:00,14.3,-4.1,30.22,ESE,117,4.0,7.0,43,0.00,,---,0.00,VWS V14.01,2013-03-16 18:45:00,
2013-03-16 10:50:00,14.6,-3.3,30.22,ESE,115,6.0,7.0,44,0.00,,---,0.00,VWS V14.01,2013-03-16 18:50:00,
2013-03-16 10:55:00,14.9,-3.5,30.22,East,86,0.0,7.0,43,0.00,,---,0.00,VWS V14.01,2013-03-16 18:55:00,
2013-03-16 11:00:00,15.3,-3.7,30.22,SE,130,2.0,7.0,42,0.00,,---,0.00,VWS V14.01,2013-03-16 19:00:00,
2013-03-16 11:05:00,15.3,-3.7,30.22,SE,126,4.0,5.0,42,0.00,,---,0.00,VWS V14.01,2013-03-16 19:05:00,
2013-03-16 11:10:00,15.4,-3.6,30.22,ESE,109,4.0,6.0,42,0.00,,---,0.00,VWS V14.01,2013-03-16 19:10:00,
2013-03-16 11:15:00,15.4,-3.1,30.22,East,84,2.0,6.0,43,0.00,,---,0.00,VWS V14.01,2013-03-16 19:15:00,
2013-03-16 11:20:00,15.7,-3.3,30.22,SE,133,0.0,8.0,42,0.00,,---,0.00,VWS V14.01,2013-03-16 19:20:00,
2013-03-16 11:25:00,16.2,-2.4,30.22,SE,133,0.0,8.0,43,0.00,,---,0.00,VWS V14.01,2013-03-16 19:25:00,
2013-03-16 11:29:00,16.6,-2.5,30.23,East,101,4.0,8.0,42,0.00,,---,0.00,VWS V14.01,2013-03-16 19:29:00,
2013-03-16 11:30:00,16.6,-3.0,30.22,SE,133,1.0,8.0,41,0.00,,---,0.00,VWS V14.01,2013-03-16 19:30:00,
2013-03-16 11:34:00,16.7,-2.4,30.23,ESE,117,0.0,4.0,42,0.00,,---,0.00,VWS V14.01,2013-03-16 19:34:00,
2013-03-16 11:39:00,16.9,-2.7,30.23,East,92,1.0,8.0,41,0.00,,---,0.00,VWS V14.01,2013-03-16 19:39:00,
2013-03-16 11:44:00,16.8,-2.8,30.23,East,98,2.0,9.0,41,0.00,,---,0.00,VWS V14.01,2013-03-16 19:44:00,
2013-03-16 11:49:00,16.9,-2.7,30.23,SE,127,5.0,9.0,41,0.00,,---,0.00,VWS V14.01,2013-03-16 19:49:00,
2013-03-16 11:54:00,16.8,-2.8,30.23,ESE,115,1.0,9.0,41,0.00,,---,0.00,VWS V14.01,2013-03-16 19:54:00,
2013-03-16 12:00:00,16.8,-2.8,30.23,ESE,107,4.0,9.0,41,0.00,,---,0.00,VWS V14.01,2013-03-16 20:00:00,
2013-03-16 12:05:00,17.1,-2.0,30.23,SE,141,6.0,6.0,42,0.00,,---,0.00,VWS V14.01,2013-03-16 20:05:00,
2013-03-16 12:10:00,17.1,-2.5,30.23,ESE,119,2.0,8.0,41,0.00,,---,0.00,VWS V14.01,2013-03-16 20:10:00,
2013-03-16 12:15:00,17.2,-2.4,30.23,ESE,103,1.0,11.0,41,0.00,,---,0.00,VWS V14.01,2013-03-16 20:15:00,
2013-03-16 12:20:00,17.5,-2.2,30.23,SE,138,4.0,11.0,41,0.00,,---,0.00,VWS V14.01,2013-03-16 20:20:00,
2013-03-16 12:25:00,17.6,-2.1,30.23,SE,136,2.0,11.0,41,0.00,,---,0.00,VWS V14.01,2013-03-16 20:25:00,
2013-03-16 12:30:00,17.7,-2.5,30.23,SSE,157,4.0,11.0,40,0.00,,---,0.00,VWS V14.01,2013-03-16 20:30:00,
2013-03-16 12:35:00,17.8,-2.4,30.23,SE,132,2.0,7.0,40,0.00,,---,0.00,VWS V14.01,2013-03-16 20:35:00,
2013-03-16 12:40:00,18.0,-1.7,30.23,SE,146,1.0,7.0,41,0.00,,---,0.00,VWS V14.01,2013-03-16 20:40:00,
2013-03-16 12:45:00,18.7,-1.6,30.24,SE,138,4.0,7.0,40,0.00,,---,0.00,VWS V14.01,2013-03-16 20:45:00,
2013-03-16 12:50:00,18.8,-2.0,30.24,ESE,113,1.0,7.0,39,0.00,,---,0.00,VWS V14.01,2013-03-16 20:50:00,
2013-03-16 12:55:00,18.8,-2.0,30.24,South,169,9.0,13.0,39,0.00,,---,0.00,VWS V14.01,2013-03-16 20:55:00,
2013-03-16 13:00:00,18.5,-1.8,30.24,SE,130,2.0,13.0,40,0.00,,---,0.00,VWS V14.01,2013-03-16 21:00:00,
2013-03-16 13:05:00,18.8,-2.0,30.24,SSE,148,4.0,6.0,39,0.00,,---,0.00,VWS V14.01,2013-03-16 21:05:00,
2013-03-16 13:10:00,19.0,-1.3,30.24,SE,136,6.0,6.0,40,0.00,,---,0.00,VWS V14.01,2013-03-16 21:10:00,
2013-03-16 13:14:00,19.2,-0.6,30.24,SSE,157,2.0,6.0,41,0.00,,---,0.00,VWS V14.01,2013-03-16 21:14:00,
2013-03-16 13:19:00,19.6,-1.3,30.24,SE,138,7.0,8.0,39,0.00,,---,0.00,VWS V14.01,2013-03-16 21:19:00,
2013-03-16 13:24:00,19.4,-1.0,30.24,SE,125,5.0,8.0,40,0.00,,---,0.00,VWS V14.01,2013-03-16 21:24:00,
2013-03-16 13:29:00,19.3,-1.1,30.24,SE,137,2.0,8.0,40,0.00,,---,0.00,VWS V14.01,2013-03-16 21:29:00,
2013-03-16 13:30:00,19.4,-1.0,30.24,SE,144,4.0,8.0,40,0.00,,---,0.00,VWS V14.01,2013-03-16 21:30:00,
2013-03-16 13:34:00,19.4,-1.5,30.24,ESE,105,7.0,10.0,39,0.00,,---,0.00,VWS V14.01,2013-03-16 21:34:00,
2013-03-16 13:39:00,19.1,-1.8,30.24,SE,128,2.0,10.0,39,0.00,,---,0.00,VWS V14.01,2013-03-16 21:39:00,
2013-03-16 13:44:00,19.0,-1.3,30.24,SSE,150,7.0,10.0,40,0.00,,---,0.00,VWS V14.01,2013-03-16 21:44:00,
2013-03-16 13:49:00,19.3,-0.5,30.24,SE,134,2.0,10.0,41,0.00,,---,0.00,VWS V14.01,2013-03-16 21:49:00,
2013-03-16 13:54:00,19.4,0.6,30.24,ESE,109,2.0,10.0,43,0.00,,---,0.00,VWS V14.01,2013-03-16 21:54:00,
2013-03-16 13:59:00,19.7,-1.2,30.24,ESE,109,4.0,10.0,39,0.00,,---,0.00,VWS V14.01,2013-03-16 21:59:00,
2013-03-16 14:00:00,19.7,-0.7,30.24,East,101,2.0,10.0,40,0.00,,---,0.00,VWS V14.01,2013-03-16 22:00:00,
2013-03-16 14:04:00,19.7,-1.2,30.24,ESE,123,1.0,8.0,39,0.00,,---,0.00,VWS V14.01,2013-03-16 22:04:00,
2013-03-16 14:09:00,19.8,-1.1,30.24,SE,125,2.0,8.0,39,0.00,,---,0.00,VWS V14.01,2013-03-16 22:09:00,
2013-03-16 14:14:00,19.8,-1.1,30.24,ESE,119,5.0,8.0,39,0.00,,---,0.00,VWS V14.01,2013-03-16 22:14:00,
2013-03-16 14:19:00,19.9,-0.5,30.24,SE,136,6.0,8.0,40,0.00,,---,0.00,VWS V14.01,2013-03-16 22:19:00,
2013-03-16 14:24:00,20.1,-0.3,30.24,SE,127,4.0,9.0,40,0.00,,---,0.00,VWS V14.01,2013-03-16 22:24:00,
2013-03-16 14:29:00,20.1,-0.9,30.24,East,96,2.0,9.0,39,0.00,,---,0.00,VWS V14.01,2013-03-16 22:29:00,
2013-03-16 14:30:00,20.2,-0.2,30.24,South,186,6.0,9.0,40,0.00,,---,0.00,VWS V14.01,2013-03-16 22:30:00,
2013-03-16 14:34:00,20.5,0.0,30.24,ESE,116,4.0,6.0,40,0.00,,---,0.00,VWS V14.01,2013-03-16 22:34:00,
2013-03-16 14:39:00,20.8,-0.2,30.24,SE,134,4.0,7.0,39,0.00,,---,0.00,VWS V14.01,2013-03-16 22:39:00,
2013-03-16 14:44:00,21.0,-0.1,30.24,ESE,104,2.0,8.0,39,0.00,,---,0.00,VWS V14.01,2013-03-16 22:44:00,
2013-03-16 14:49:00,21.2,0.7,30.24,SSE,149,0.0,8.0,40,0.00,,---,0.00,VWS V14.01,2013-03-16 22:49:00,
2013-03-16 14:54:00,21.3,0.8,30.25,ESE,121,4.0,8.0,40,0.00,,---,0.00,VWS V14.01,2013-03-16 22:54:00,
2013-03-16 14:59:00,21.4,0.3,30.25,SSE,155,2.0,8.0,39,0.00,,---,0.00,VWS V14.01,2013-03-16 22:59:00,
2013-03-16 15:00:00,21.5,0.4,30.25,SSE,151,8.0,8.0,39,0.00,,---,0.00,VWS V14.01,2013-03-16 23:00:00,
2013-03-16 15:04:00,21.2,-0.4,30.25,SSE,167,4.0,8.0,38,0.00,,---,0.00,VWS V14.01,2013-03-16 23:04:00,
2013-03-16 15:09:00,21.2,0.7,30.25,ESE,107,2.0,8.0,40,0.00,,---,0.00,VWS V14.01,2013-03-16 23:09:00,
2013-03-16 15:14:00,21.7,0.6,30.25,ESE,123,5.0,8.0,39,0.00,,---,0.00,VWS V14.01,2013-03-16 23:14:00,
2013-03-16 15:19:00,22.0,1.4,30.25,ESE,121,2.0,8.0,40,0.00,,---,0.00,VWS V14.01,2013-03-16 23:19:00,
2013-03-16 15:24:00,22.3,0.6,30.25,SSE,156,2.0,8.0,38,0.00,,---,0.00,VWS V14.01,2013-03-16 23:24:00,
2013-03-16 15:29:00,22.2,0.5,30.25,SSE,162,4.0,8.0,38,0.00,,---,0.00,VWS V14.01,2013-03-16 23:29:00,
2013-03-16 15:30:00,22.1,0.4,30.25,East,101,2.0,8.0,38,0.00,,---,0.00,VWS V14.01,2013-03-16 23:30:00,
2013-03-16 15:34:00,22.1,0.4,30.25,ESE,106,2.0,5.0,38,0.00,,---,0.00,VWS V14.01,2013-03-16 23:34:00,
2013-03-16 15:39:00,22.3,0.6,30.25,SE,135,0.0,5.0,38,0.00,,---,0.00,VWS V14.01,2013-03-16 23:39:00,
2013-03-16 15:44:00,22.4,0.6,30.25,SSE,155,5.0,8.0,38,0.00,,---,0.00,VWS V14.01,2013-03-16 23:44:00,
2013-03-16 15:49:00,22.4,0.1,30.25,ESE,113,1.0,8.0,37,0.00,,---,0.00,VWS V14.01,2013-03-16 23:49:00,
2013-03-16 15:54:00,22.6,0.3,30.25,SSE,158,2.0,8.0,37,0.00,,---,0.00,VWS V14.01,2013-03-16 23:54:00,
2013-03-16 15:59:00,22.6,0.3,30.25,SE,130,5.0,12.0,37,0.00,,---,0.00,VWS V14.01,2013-03-16 23:59:00,
2013-03-16 16:00:00,22.6,0.3,30.25,SSE,148,1.0,12.0,37,0.00,,---,0.00,VWS V14.01,2013-03-17 00:00:00,
2013-03-16 16:04:00,22.7,0.9,30.25,East,80,0.0,6.0,38,0.00,,---,0.00,VWS V14.01,2013-03-17 00:04:00,
2013-03-16 16:09:00,23.0,1.2,30.25,NNE,30,4.0,6.0,38,0.00,,---,0.00,VWS V14.01,2013-03-17 00:09:00,
2013-03-16 16:14:00,23.1,1.3,30.25,SSE,155,1.0,6.0,38,0.00,,---,0.00,VWS V14.01,2013-03-17 00:14:00,
2013-03-16 16:19:00,23.1,1.3,30.25,SSE,147,2.0,6.0,38,0.00,,---,0.00,VWS V14.01,2013-03-17 00:19:00,
2013-03-16 16:24:00,23.1,0.7,30.25,SSE,155,6.0,7.0,37,0.00,,---,0.00,VWS V14.01,2013-03-17 00:24:00,
2013-03-16 16:29:00,23.0,1.2,30.25,ESE,105,4.0,7.0,38,0.00,,---,0.00,VWS V14.01,2013-03-17 00:29:00,
2013-03-16 16:30:00,23.0,1.2,30.25,SE,136,1.0,7.0,38,0.00,,---,0.00,VWS V14.01,2013-03-17 00:30:00,
2013-03-16 16:34:00,23.0,1.2,30.25,SSE,148,2.0,5.0,38,0.00,,---,0.00,VWS V14.01,2013-03-17 00:34:00,
2013-03-16 16:39:00,23.1,2.4,30.25,SE,138,6.0,6.0,40,0.00,,---,0.00,VWS V14.01,2013-03-17 00:39:00,
2013-03-16 16:44:00,22.9,1.1,30.25,SE,134,2.0,7.0,38,0.00,,---,0.00,VWS V14.01,2013-03-17 00:44:00,
2013-03-16 16:49:00,22.8,1.0,30.25,ESE,117,0.0,7.0,38,0.00,,---,0.00,VWS V14.01,2013-03-17 00:49:00,
2013-03-16 16:54:00,23.1,3.4,30.25,ESE,115,4.0,7.0,42,0.00,,---,0.00,VWS V14.01,2013-03-17 00:54:00,
2013-03-16 16:59:00,23.2,1.4,30.25,SE,136,1.0,7.0,38,0.00,,---,0.00,VWS V14.01,2013-03-17 00:59:00,
2013-03-16 17:00:00,23.3,1.5,30.25,SE,136,2.0,7.0,38,0.00,,---,0.00,VWS V14.01,2013-03-17 01:00:00,
2013-03-16 17:04:00,23.3,1.5,30.25,SE,136,0.0,4.0,38,0.00,,---,0.00,VWS V14.01,2013-03-17 01:04:00,
2013-03-16 17:09:00,23.6,1.7,30.25,SE,134,1.0,4.0,38,0.00,,---,0.00,VWS V14.01,2013-03-17 01:09:00,
2013-03-16 17:14:00,23.8,1.3,30.25,South,175,2.0,5.0,37,0.00,,---,0.00,VWS V14.01,2013-03-17 01:14:00,
2013-03-16 17:19:00,23.9,1.4,30.26,ESE,120,0.0,5.0,37,0.00,,---,0.00,VWS V14.01,2013-03-17 01:19:00,
2013-03-16 17:24:00,23.9,1.4,30.26,ESE,102,2.0,6.0,37,0.00,,---,0.00,VWS V14.01,2013-03-17 01:24:00,
2013-03-16 17:29:00,23.6,1.7,30.25,SE,144,0.0,6.0,38,0.00,,---,0.00,VWS V14.01,2013-03-17 01:29:00,
2013-03-16 17:30:00,23.5,1.6,30.26,SE,144,1.0,6.0,38,0.00,,---,0.00,VWS V14.01,2013-03-17 01:30:00,
2013-03-16 17:34:00,23.5,1.6,30.26,SSE,163,5.0,6.0,38,0.00,,---,0.00,VWS V14.01,2013-03-17 01:34:00,
2013-03-16 17:39:00,23.3,1.5,30.26,SSE,157,4.0,6.0,38,0.00,,---,0.00,VWS V14.01,2013-03-17 01:39:00,
2013-03-16 17:44:00,23.3,1.5,30.26,SSE,149,2.0,6.0,38,0.00,,---,0.00,VWS V14.01,2013-03-17 01:44:00,
2013-03-16 17:49:00,23.3,1.5,30.26,SE,143,0.0,6.0,38,0.00,,---,0.00,VWS V14.01,2013-03-17 01:49:00,
2013-03-16 17:54:00,23.3,1.5,30.26,ESE,123,4.0,6.0,38,0.00,,---,0.00,VWS V14.01,2013-03-17 01:54:00,
2013-03-16 17:59:00,23.3,1.5,30.26,ESE,116,0.0,6.0,38,0.00,,---,0.00,VWS V14.01,2013-03-17 01:59:00,
2013-03-16 18:00:00,23.3,1.5,30.26,ESE,121,0.0,6.0,38,0.00,,---,0.00,VWS V14.01,2013-03-17 02:00:00,
2013-03-16 18:04:00,23.3,1.5,30.26,SSE,153,2.0,7.0,38,0.00,,---,0.00,VWS V14.01,2013-03-17 02:04:00,
2013-03-16 18:09:00,23.1,1.3,30.26,SSE,160,0.0,7.0,38,0.00,,---,0.00,VWS V14.01,2013-03-17 02:09:00,
2013-03-16 18:14:00,23.2,1.9,30.27,SSE,161,0.0,7.0,39,0.00,,---,0.00,VWS V14.01,2013-03-17 02:14:00,
2013-03-16 18:19:00,23.2,1.4,30.27,SSE,155,4.0,7.0,38,0.00,,---,0.00,VWS V14.01,2013-03-17 02:19:00,
2013-03-16 18:24:00,23.0,1.2,30.27,SSE,158,1.0,7.0,38,0.00,,---,0.00,VWS V14.01,2013-03-17 02:24:00,
2013-03-16 18:29:00,22.9,1.7,30.27,SSE,159,0.0,7.0,39,0.00,,---,0.00,VWS V14.01,2013-03-17 02:29:00,
2013-03-16 18:30:00,22.8,1.6,30.27,SSE,159,0.0,7.0,39,0.00,,---,0.00,VWS V14.01,2013-03-17 02:30:00,
2013-03-16 18:34:00,22.7,1.5,30.26,SSE,162,2.0,2.0,39,0.00,,---,0.00,VWS V14.01,2013-03-17 02:34:00,
2013-03-16 18:39:00,22.6,1.4,30.26,SSE,163,0.0,5.0,39,0.00,,---,0.00,VWS V14.01,2013-03-17 02:39:00,
2013-03-16 18:44:00,22.6,1.4,30.27,SSE,147,1.0,5.0,39,0.00,,---,0.00,VWS V14.01,2013-03-17 02:44:00,
2013-03-16 18:49:00,22.5,1.3,30.26,SSE,150,0.0,5.0,39,0.00,,---,0.00,VWS V14.01,2013-03-17 02:49:00,
2013-03-16 18:54:00,22.5,1.3,30.27,SSE,150,0.0,5.0,39,0.00,,---,0.00,VWS V14.01,2013-03-17 02:54:00,
2013-03-16 18:59:00,22.3,1.7,30.27,SSE,150,1.0,5.0,40,0.00,,---,0.00,VWS V14.01,2013-03-17 02:59:00,
2013-03-16 19:00:00,22.2,1.6,30.27,SSE,150,0.0,5.0,40,0.00,,---,0.00,VWS V14.01,2013-03-17 03:00:00,
2013-03-16 19:04:00,22.1,1.5,30.27,SSE,150,0.0,1.0,40,0.00,,---,0.00,VWS V14.01,2013-03-17 03:04:00,
2013-03-16 19:09:00,21.9,1.3,30.27,SSE,150,0.0,1.0,40,0.00,,---,0.00,VWS V14.01,2013-03-17 03:09:00,
2013-03-16 19:14:00,21.7,1.1,30.27,SSE,150,0.0,1.0,40,0.00,,---,0.00,VWS V14.01,2013-03-17 03:14:00,
2013-03-16 19:19:00,21.5,0.9,30.27,SSE,150,0.0,1.0,40,0.00,,---,0.00,VWS V14.01,2013-03-17 03:19:00,
2013-03-16 19:24:00,21.4,0.8,30.27,SSE,150,0.0,1.0,40,0.00,,---,0.00,VWS V14.01,2013-03-17 03:24:00,
2013-03-16 19:29:00,21.2,1.2,30.28,SSE,150,0.0,1.0,41,0.00,,---,0.00,VWS V14.01,2013-03-17 03:29:00,
2013-03-16 19:30:00,21.1,1.1,30.28,SSE,150,0.0,1.0,41,0.00,,---,0.00,VWS V14.01,2013-03-17 03:30:00,
2013-03-16 19:34:00,21.0,1.0,30.28,SSE,150,0.0,0.0,41,0.00,,---,0.00,VWS V14.01,2013-03-17 03:34:00,
2013-03-16 19:39:00,20.8,0.8,30.28,SSE,150,0.0,0.0,41,0.00,,---,0.00,VWS V14.01,2013-03-17 03:39:00,
2013-03-16 19:44:00,20.6,0.6,30.28,SSE,150,0.0,0.0,41,0.00,,---,0.00,VWS V14.01,2013-03-17 03:44:00,
2013-03-16 19:49:00,20.5,0.6,30.28,SSE,150,0.0,1.0,41,0.00,,---,0.00,VWS V14.01,2013-03-17 03:49:00,
2013-03-16 19:54:00,20.4,1.0,30.28,SSE,150,0.0,1.0,42,0.00,,---,0.00,VWS V14.01,2013-03-17 03:54:00,
2013-03-16 19:59:00,20.3,0.9,30.28,SSE,150,0.0,1.0,42,0.00,,---,0.00,VWS V14.01,2013-03-17 03:59:00,
2013-03-16 20:00:00,20.2,0.8,30.28,SSE,150,0.0,1.0,42,0.00,,---,0.00,VWS V14.01,2013-03-17 04:00:00,
2013-03-16 20:05:00,20.1,0.7,30.28,SSE,150,0.0,1.0,42,0.00,,---,0.00,VWS V14.01,2013-03-17 04:05:00,
2013-03-16 20:10:00,20.0,0.6,30.28,SSE,150,0.0,2.0,42,0.00,,---,0.00,VWS V14.01,2013-03-17 04:10:00,
2013-03-16 20:15:00,19.9,0.5,30.29,SSE,150,0.0,2.0,42,0.00,,---,0.00,VWS V14.01,2013-03-17 04:15:00,
2013-03-16 20:20:00,19.7,0.8,30.29,SSE,150,1.0,2.0,43,0.00,,---,0.00,VWS V14.01,2013-03-17 04:20:00,
2013-03-16 20:25:00,19.6,0.8,30.29,SSE,150,1.0,2.0,43,0.00,,---,0.00,VWS V14.01,2013-03-17 04:25:00,
2013-03-16 20:30:00,19.5,0.7,30.29,SSE,150,0.0,2.0,43,0.00,,---,0.00,VWS V14.01,2013-03-17 04:30:00,
2013-03-16 20:35:00,19.4,0.6,30.29,SSE,150,2.0,4.0,43,0.00,,---,0.00,VWS V14.01,2013-03-17 04:35:00,
2013-03-16 20:40:00,19.2,0.4,30.29,SSE,150,0.0,4.0,43,0.00,,---,0.00,VWS V14.01,2013-03-17 04:40:00,
2013-03-16 20:45:00,19.0,0.7,30.29,SSE,150,0.0,4.0,44,0.00,,---,0.00,VWS V14.01,2013-03-17 04:45:00,
2013-03-16 20:50:00,18.9,0.6,30.30,SSE,150,1.0,4.0,44,0.00,,---,0.00,VWS V14.01,2013-03-17 04:50:00,
2013-03-16 20:55:00,19.0,0.7,30.30,SSE,150,0.0,4.0,44,0.00,,---,0.00,VWS V14.01,2013-03-17 04:55:00,
2013-03-16 21:00:00,19.0,1.2,30.30,SSE,150,0.0,4.0,45,0.00,,---,0.00,VWS V14.01,2013-03-17 05:00:00,
2013-03-16 21:05:00,18.9,0.6,30.30,SSE,150,0.0,1.0,44,0.00,,---,0.00,VWS V14.01,2013-03-17 05:05:00,
2013-03-16 21:10:00,18.8,0.5,30.30,SSE,150,0.0,1.0,44,0.00,,---,0.00,VWS V14.01,2013-03-17 05:10:00,
2013-03-16 21:15:00,18.6,0.8,30.30,SSE,150,0.0,1.0,45,0.00,,---,0.00,VWS V14.01,2013-03-17 05:15:00,
2013-03-16 21:20:00,18.6,0.3,30.31,SSE,150,0.0,1.0,44,0.00,,---,0.00,VWS V14.01,2013-03-17 05:20:00,
2013-03-16 21:25:00,18.4,0.1,30.31,SSE,150,0.0,1.0,44,0.00,,---,0.00,VWS V14.01,2013-03-17 05:25:00,
2013-03-16 21:30:00,18.4,-0.3,30.31,SSE,150,0.0,1.0,43,0.00,,---,0.00,VWS V14.01,2013-03-17 05:30:00,
2013-03-16 21:35:00,18.4,-0.3,30.31,SSE,150,0.0,0.0,43,0.00,,---,0.00,VWS V14.01,2013-03-17 05:35:00,
2013-03-16 21:40:00,18.3,-0.4,30.31,SSE,150,0.0,0.0,43,0.00,,---,0.00,VWS V14.01,2013-03-17 05:40:00,
2013-03-16 21:45:00,18.2,-0.5,30.31,SSE,150,0.0,1.0,43,0.00,,---,0.00,VWS V14.01,2013-03-17 05:45:00,
2013-03-16 21:50:00,18.1,-0.6,30.31,SSE,150,0.0,1.0,43,0.00,,---,0.00,VWS V14.01,2013-03-17 05:50:00,
2013-03-16 21:55:00,18.0,-0.2,30.31,SSE,150,0.0,4.0,44,0.00,,---,0.00,VWS V14.01,2013-03-17 05:55:00,
2013-03-16 22:00:00,17.7,0.0,30.31,SSE,150,0.0,4.0,45,0.00,,---,0.00,VWS V14.01,2013-03-17 06:00:00,
2013-03-16 22:05:00,17.4,0.2,30.31,SSE,150,0.0,1.0,46,0.00,,---,0.00,VWS V14.01,2013-03-17 06:05:00,
2013-03-16 22:10:00,17.2,0.0,30.31,SSE,150,0.0,1.0,46,0.00,,---,0.00,VWS V14.01,2013-03-17 06:10:00,
2013-03-16 22:15:00,17.1,0.3,30.31,SSE,150,1.0,1.0,47,0.00,,---,0.00,VWS V14.01,2013-03-17 06:15:00,
2013-03-16 22:20:00,17.1,0.3,30.31,SSE,158,0.0,4.0,47,0.00,,---,0.00,VWS V14.01,2013-03-17 06:20:00,
2013-03-16 22:25:00,17.1,0.3,30.31,SSE,159,0.0,4.0,47,0.00,,---,0.00,VWS V14.01,2013-03-17 06:25:00,
2013-03-16 22:30:00,17.0,0.3,30.31,SSE,159,0.0,4.0,47,0.00,,---,0.00,VWS V14.01,2013-03-17 06:30:00,
2013-03-16 22:35:00,17.0,0.3,30.31,SSE,159,0.0,1.0,47,0.00,,---,0.00,VWS V14.01,2013-03-17 06:35:00,
2013-03-16 22:40:00,16.7,0.0,30.31,SSE,159,1.0,1.0,47,0.00,,---,0.00,VWS V14.01,2013-03-17 06:40:00,
2013-03-16 22:45:00,16.4,0.2,30.31,SSE,159,0.0,1.0,48,0.00,,---,0.00,VWS V14.01,2013-03-17 06:45:00,
2013-03-16 22:50:00,16.2,0.0,30.32,SSE,159,0.0,1.0,48,0.00,,---,0.00,VWS V14.01,2013-03-17 06:50:00,
2013-03-16 22:55:00,16.2,0.0,30.32,SSE,159,0.0,2.0,48,0.00,,---,0.00,VWS V14.01,2013-03-17 06:55:00,
2013-03-16 23:00:00,16.1,-0.1,30.32,SSE,159,0.0,2.0,48,0.00,,---,0.00,VWS V14.01,2013-03-17 07:00:00,
2013-03-16 23:05:00,16.2,0.0,30.32,SSE,167,0.0,2.0,48,0.00,,---,0.00,VWS V14.01,2013-03-17 07:05:00,
2013-03-16 23:10:00,16.2,0.4,30.32,SSE,167,2.0,2.0,49,0.00,,---,0.00,VWS V14.01,2013-03-17 07:10:00,
2013-03-16 23:15:00,16.4,0.2,30.32,SSE,167,0.0,4.0,48,0.00,,---,0.00,VWS V14.01,2013-03-17 07:15:00,
2013-03-16 23:20:00,16.4,0.2,30.32,SSE,167,0.0,4.0,48,0.00,,---,0.00,VWS V14.01,2013-03-17 07:20:00,
2013-03-16 23:25:00,16.3,0.1,30.33,SSE,167,0.0,4.0,48,0.00,,---,0.00,VWS V14.01,2013-03-17 07:25:00,
2013-03-16 23:30:00,16.1,-0.1,30.33,SSE,167,0.0,4.0,48,0.00,,---,0.00,VWS V14.01,2013-03-17 07:30:00,
2013-03-16 23:35:00,15.9,0.1,30.33,SSE,167,0.0,0.0,49,0.00,,---,0.00,VWS V14.01,2013-03-17 07:35:00,
2013-03-16 23:40:00,15.7,-0.1,30.33,SSE,167,0.0,0.0,49,0.00,,---,0.00,VWS V14.01,2013-03-17 07:40:00,
2013-03-16 23:45:00,15.6,-0.2,30.33,SSE,167,0.0,0.0,49,0.00,,---,0.00,VWS V14.01,2013-03-17 07:45:00,
2013-03-16 23:50:00,15.5,-0.2,30.33,SSE,167,0.0,1.0,49,0.00,,---,0.00,VWS V14.01,2013-03-17 07:50:00,
2013-03-16 23:55:00,15.5,0.2,30.33,SSE,167,0.0,1.0,50,0.00,,---,0.00,VWS V14.01,2013-03-17 07:55:00,